Time;durP1;ratioP1;P1;durP2;ratioP2;P2;SDS_P1;SDS_P2;PMS_P1;PMS_P2;Temp;Humidity;BMP_temperature;BMP_pressure;BME280_temperature;BME280_humidity;BME280_pressure;Samples;Min_cycle;Max_cycle;Signal;HPM_P1;HPM_P2
2022/01/23 00:01:21;;;;;;;0.50;0.50;;;5.60;99.90;;;;;;5138835;27;20284;-78
2022/01/23 00:03:47;;;;;;;0.60;0.60;;;5.70;99.90;;;;;;5139231;27;20039;-78
2022/01/23 00:06:13;;;;;;;0.60;0.60;;;5.70;99.90;;;;;;5138530;27;20047;-79
2022/01/23 00:08:39;;;;;;;0.60;0.60;;;5.60;99.90;;;;;;5138511;27;20276;-79
2022/01/23 00:11:04;;;;;;;0.60;0.60;;;5.60;99.90;;;;;;5138490;27;20043;-78
2022/01/23 00:19:07;;;;;;;0.70;0.70;;;5.60;99.90;;;;;;5138748;27;20054;-79
2022/01/23 00:21:34;;;;;;;0.60;0.60;;;5.70;99.90;;;;;;5138744;27;20047;-78
2022/01/23 00:31:54;;;;;;;0.60;0.60;;;5.70;99.90;;;;;;5108247;27;20047;-79
2022/01/23 00:34:20;;;;;;;0.60;0.60;;;5.70;99.90;;;;;;5137880;27;20087;-79
2022/01/23 00:36:46;;;;;;;0.50;0.50;;;5.60;99.90;;;;;;5137762;27;20039;-78
2022/01/23 00:39:11;;;;;;;0.60;0.60;;;5.70;99.90;;;;;;5137599;27;20497;-77
2022/01/23 00:41:37;;;;;;;0.50;0.50;;;5.60;99.90;;;;;;5137321;27;20081;-77
2022/01/23 00:44:03;;;;;;;0.70;0.70;;;5.60;99.90;;;;;;5119489;27;20540;-77
2022/01/23 00:46:37;;;;;;;0.50;0.50;;;5.60;99.90;;;;;;5137577;27;20051;-78
2022/01/23 00:51:35;;;;;;;0.50;0.50;;;5.60;99.90;;;;;;5137442;27;20160;-79
2022/01/23 00:54:07;;;;;;;0.55;0.55;;;6.00;99.90;;;;;;5137348;27;20039;-78
2022/01/23 00:56:33;;;;;;;0.50;0.50;;;5.60;99.90;;;;;;5137472;27;20106;-78
2022/01/23 00:58:59;;;;;;;0.60;0.60;;;5.60;99.90;;;;;;5118883;27;20054;-79
2022/01/23 01:01:26;;;;;;;0.50;0.50;;;5.60;99.90;;;;;;5137160;27;20117;-78
2022/01/23 01:03:51;;;;;;;0.60;0.60;;;5.60;99.90;;;;;;5137134;27;20139;-78
2022/01/23 01:06:17;;;;;;;0.60;0.60;;;5.60;99.90;;;;;;5137131;27;20047;-78
2022/01/23 01:08:44;;;;;;;0.50;0.50;;;5.60;99.90;;;;;;5135868;27;20387;-77
2022/01/23 01:11:56;;;;;;;0.50;0.50;;;5.60;99.90;;;;;;5137000;27;20463;-77
2022/01/23 01:16:59;;;;;;;0.50;0.50;;;5.60;99.90;;;;;;5137311;27;20055;-78
2022/01/23 01:37:45;;;;;;;0.60;0.60;;;5.60;99.90;;;;;;5136304;27;20065;-78
2022/01/23 01:40:10;;;;;;;0.50;0.50;;;5.50;99.90;;;;;;5136482;27;20047;-77
2022/01/23 01:42:36;;;;;;;0.50;0.50;;;5.60;99.90;;;;;;5136547;27;20088;-78
2022/01/23 01:45:02;;;;;;;0.50;0.50;;;5.50;99.90;;;;;;5136685;27;20051;-79
2022/01/23 01:47:28;;;;;;;3.30;3.13;;;5.50;99.90;;;;;;5136622;27;20047;-78
2022/01/23 01:49:53;;;;;;;0.50;0.50;;;5.50;99.90;;;;;;5137004;27;20054;-77
2022/01/23 01:52:19;;;;;;;0.50;0.50;;;5.60;99.90;;;;;;5136374;27;20095;-78
2022/01/23 01:54:47;;;;;;;0.70;0.70;;;5.50;99.90;;;;;;5136404;27;20049;-79
2022/01/23 01:57:14;;;;;;;0.50;0.50;;;5.50;99.90;;;;;;5136203;27;20403;-79
2022/01/23 02:00:11;;;;;;;0.50;0.50;;;5.50;99.90;;;;;;5136435;27;20382;-78
2022/01/23 02:10:45;;;;;;;0.50;0.50;;;5.50;99.90;;;;;;5136049;27;20130;-79
2022/01/23 02:13:33;;;;;;;0.50;0.50;;;5.50;99.90;;;;;;5136174;27;20068;-78
2022/01/23 02:25:12;;;;;;;0.60;0.60;;;5.50;99.90;;;;;;5112016;27;20051;-79
2022/01/23 02:52:39;;;;;;;0.50;0.50;;;5.40;99.90;;;;;;5135387;27;20410;-78
2022/01/23 02:55:13;;;;;;;0.50;0.50;;;5.50;99.90;;;;;;5135418;27;20047;-79
2022/01/23 02:57:52;;;;;;;0.50;0.50;;;5.50;99.90;;;;;;5135326;27;20069;-79
2022/01/23 03:00:20;;;;;;;0.50;0.50;;;5.50;99.90;;;;;;5119314;27;20452;-79
2022/01/23 03:02:49;;;;;;;1.90;1.80;;;5.50;99.90;;;;;;5135026;27;20047;-77
2022/01/23 03:10:24;;;;;;;0.60;0.60;;;5.40;99.90;;;;;;5135128;27;20486;-79
2022/01/23 03:26:35;;;;;;;0.50;0.50;;;5.40;99.90;;;;;;5134979;28;20043;-77
2022/01/23 03:29:20;;;;;;;0.50;0.50;;;5.40;99.90;;;;;;5135098;28;20040;-78
2022/01/23 03:32:01;;;;;;;0.70;0.70;;;5.40;99.90;;;;;;5136929;27;20115;-77
2022/01/23 03:34:28;;;;;;;0.50;0.50;;;5.40;99.90;;;;;;5121455;27;20051;-78
2022/01/23 03:36:55;;;;;;;0.60;0.60;;;5.40;99.90;;;;;;5139531;27;20383;-78
2022/01/23 03:39:21;;;;;;;0.60;0.60;;;5.40;99.90;;;;;;5139281;27;20113;-77
2022/01/23 03:41:46;;;;;;;0.60;0.60;;;5.40;99.90;;;;;;5120888;27;20384;-77
2022/01/23 03:44:15;;;;;;;1.25;1.15;;;5.40;99.90;;;;;;5121060;27;20126;-79
2022/01/23 03:51:54;;;;;;;0.50;0.50;;;5.40;99.90;;;;;;5138772;27;20072;-77
2022/01/23 03:54:20;;;;;;;0.50;0.50;;;5.50;99.90;;;;;;5138750;27;20047;-78
2022/01/23 03:56:45;;;;;;;0.50;0.50;;;5.40;99.90;;;;;;5138671;27;20058;-79
2022/01/23 03:59:11;;;;;;;0.60;0.60;;;5.40;99.90;;;;;;5138461;27;20497;-79
2022/01/23 04:01:37;;;;;;;0.60;0.60;;;5.40;99.90;;;;;;5138840;27;20386;-79
2022/01/23 04:04:08;;;;;;;0.82;0.82;;;5.40;99.90;;;;;;5138576;27;20074;-77
2022/01/23 04:06:34;;;;;;;0.55;0.55;;;5.40;99.90;;;;;;5138653;27;20102;-79
2022/01/23 04:09:00;;;;;;;0.50;0.50;;;5.40;99.90;;;;;;5138327;27;20122;-77
2022/01/23 04:11:25;;;;;;;0.50;0.50;;;5.40;99.90;;;;;;5138533;27;20035;-77
2022/01/23 04:14:01;;;;;;;2.05;1.95;;;5.50;99.90;;;;;;5138427;27;20117;-78
2022/01/23 04:17:43;;;;;;;0.50;0.50;;;5.40;99.90;;;;;;5138260;27;20080;-77
2022/01/23 04:19:39;;;;;;;0.50;0.50;;;5.40;99.90;;;;;;5123516;27;20368;-77
2022/01/23 04:45:15;;;;;;;0.50;0.50;;;5.50;99.90;;;;;;5138218;27;20057;-77
2022/01/23 05:01:00;;;;;;;0.50;0.50;;;5.50;99.90;;;;;;5130501;27;20428;-77
2022/01/23 05:06:11;;;;;;;0.50;0.50;;;5.50;99.90;;;;;;5136969;27;20466;-77
2022/01/23 05:08:37;;;;;;;0.50;0.50;;;5.50;99.90;;;;;;5137350;27;20043;-77
2022/01/23 05:11:06;;;;;;;0.60;0.60;;;5.50;99.90;;;;;;5137713;27;20051;-77
2022/01/23 05:13:33;;;;;;;0.50;0.50;;;5.40;99.90;;;;;;5137377;27;20501;-77
2022/01/23 05:15:58;;;;;;;0.60;0.60;;;5.50;99.90;;;;;;5119174;27;20414;-77
2022/01/23 05:18:24;;;;;;;0.60;0.60;;;5.40;99.90;;;;;;5137364;27;20039;-77
2022/01/23 05:20:58;;;;;;;0.50;0.50;;;5.40;99.90;;;;;;5136893;27;20082;-77
2022/01/23 05:23:24;;;;;;;0.60;0.60;;;5.40;99.90;;;;;;5137604;27;20043;-79
2022/01/23 05:25:49;;;;;;;0.50;0.50;;;5.40;99.90;;;;;;5137085;27;20050;-77
2022/01/23 05:28:15;;;;;;;0.50;0.50;;;5.40;99.90;;;;;;5137333;27;20043;-78
2022/01/23 05:30:41;;;;;;;0.60;0.60;;;5.40;99.90;;;;;;5137268;27;20463;-77
2022/01/23 05:33:06;;;;;;;0.60;0.60;;;5.40;99.90;;;;;;5137077;27;20513;-77
2022/01/23 05:35:32;;;;;;;0.50;0.50;;;5.40;99.90;;;;;;5136865;27;20035;-78
2022/01/23 05:37:58;;;;;;;0.50;0.50;;;5.40;99.90;;;;;;5136863;27;20510;-79
2022/01/23 05:40:27;;;;;;;0.60;0.60;;;5.40;99.90;;;;;;5136662;27;20043;-77
2022/01/23 05:42:52;;;;;;;0.50;0.50;;;5.30;99.90;;;;;;5136795;27;20043;-79
2022/01/23 05:45:18;;;;;;;0.70;0.70;;;5.40;99.90;;;;;;5136627;27;20092;-78
2022/01/23 05:47:44;;;;;;;0.90;0.90;;;5.40;99.90;;;;;;5136389;27;20039;-78
2022/01/23 05:50:10;;;;;;;0.93;0.93;;;5.40;99.90;;;;;;5136525;27;20045;-78
2022/01/23 05:52:35;;;;;;;0.82;0.82;;;5.40;99.90;;;;;;5118094;27;20043;-77
2022/01/23 05:55:01;;;;;;;0.57;0.57;;;5.40;99.90;;;;;;5136003;27;20066;-78
2022/01/23 05:57:26;;;;;;;0.60;0.60;;;5.40;99.90;;;;;;5118506;27;20039;-77
2022/01/23 05:59:52;;;;;;;0.60;0.60;;;5.40;99.90;;;;;;5136375;27;20423;-78
2022/01/23 06:02:18;;;;;;;0.57;0.57;;;5.40;99.90;;;;;;5136389;27;20464;-78
2022/01/23 06:04:43;;;;;;;0.50;0.50;;;5.40;99.90;;;;;;5136332;27;20051;-78
2022/01/23 06:07:09;;;;;;;2.72;2.55;;;5.40;99.90;;;;;;5136177;27;20050;-78
2022/01/23 06:09:39;;;;;;;0.60;0.60;;;5.40;99.90;;;;;;5136282;27;20043;-78
2022/01/23 06:12:05;;;;;;;0.55;0.55;;;5.40;99.90;;;;;;5136418;27;20039;-77
2022/01/23 06:14:31;;;;;;;0.50;0.50;;;5.40;99.90;;;;;;5117697;27;20042;-77
2022/01/23 06:16:57;;;;;;;0.60;0.60;;;5.40;99.90;;;;;;5136074;27;20047;-77
2022/01/23 06:19:22;;;;;;;0.60;0.60;;;5.40;99.90;;;;;;5135872;27;20035;-78
2022/01/23 06:21:48;;;;;;;0.50;0.50;;;5.40;99.90;;;;;;5136441;27;20126;-78
2022/01/23 06:24:23;;;;;;;0.50;0.50;;;5.50;99.90;;;;;;5135719;27;20045;-79
2022/01/23 06:26:52;;;;;;;0.50;0.50;;;5.40;99.90;;;;;;5135996;27;20047;-79
2022/01/23 06:29:19;;;;;;;0.50;0.50;;;5.40;99.90;;;;;;5117547;27;20035;-78
2022/01/23 06:31:46;;;;;;;0.60;0.60;;;5.40;99.90;;;;;;5116886;27;20406;-78
2022/01/23 06:34:13;;;;;;;0.50;0.50;;;5.30;99.90;;;;;;5135948;27;20047;-79
2022/01/23 06:36:39;;;;;;;0.70;0.70;;;5.40;99.90;;;;;;5135741;27;20043;-80
2022/01/23 06:39:07;;;;;;;0.60;0.60;;;5.40;99.90;;;;;;5135473;27;20173;-79
2022/01/23 06:41:33;;;;;;;0.60;0.60;;;5.40;99.90;;;;;;5135435;27;20383;-77
2022/01/23 06:43:59;;;;;;;0.60;0.60;;;5.40;99.90;;;;;;5135564;27;20039;-78
2022/01/23 06:46:25;;;;;;;0.63;0.63;;;5.40;99.90;;;;;;5135542;27;20099;-80
2022/01/23 06:48:50;;;;;;;0.50;0.50;;;5.40;99.90;;;;;;5134893;27;20051;-77
2022/01/23 06:51:16;;;;;;;0.60;0.60;;;5.40;99.90;;;;;;5135304;27;20130;-76
2022/01/23 06:53:42;;;;;;;0.60;0.60;;;5.40;99.90;;;;;;5135888;27;20043;-77
2022/01/23 06:56:07;;;;;;;0.60;0.60;;;5.40;99.90;;;;;;5117600;27;20092;-77
2022/01/23 06:58:33;;;;;;;0.50;0.50;;;5.40;99.90;;;;;;5135254;27;20039;-74
2022/01/23 07:00:59;;;;;;;0.60;0.60;;;5.40;99.90;;;;;;5135096;27;20043;-77
2022/01/23 07:03:25;;;;;;;0.60;0.60;;;5.40;99.90;;;;;;5135041;27;20043;-77
2022/01/23 07:05:50;;;;;;;0.60;0.60;;;5.40;99.90;;;;;;5134110;27;20479;-76
2022/01/23 07:08:16;;;;;;;0.60;0.60;;;5.40;99.90;;;;;;5134935;27;20051;-76
2022/01/23 07:10:41;;;;;;;0.65;0.65;;;5.40;99.90;;;;;;5135024;27;20039;-77
2022/01/23 07:13:07;;;;;;;0.60;0.60;;;5.40;99.90;;;;;;5135011;27;20043;-80
2022/01/23 07:15:32;;;;;;;0.60;0.60;;;5.40;99.90;;;;;;5116993;28;20180;-78
2022/01/23 07:17:58;;;;;;;0.60;0.60;;;5.40;99.90;;;;;;5135197;27;20391;-78
2022/01/23 07:20:24;;;;;;;0.55;0.55;;;5.40;99.90;;;;;;5134928;28;20043;-79
2022/01/23 07:22:50;;;;;;;0.60;0.60;;;5.40;99.90;;;;;;5134831;28;20471;-77
2022/01/23 07:25:15;;;;;;;0.50;0.50;;;5.30;99.90;;;;;;5135989;28;20548;-81
2022/01/23 07:27:48;;;;;;;0.50;0.50;;;5.40;99.90;;;;;;5136159;28;20527;-77
2022/01/23 07:32:48;;;;;;;0.60;0.60;;;5.40;99.90;;;;;;5135112;28;20471;-79
2022/01/23 07:35:14;;;;;;;0.60;0.60;;;5.40;99.90;;;;;;5135212;28;20043;-78
2022/01/23 07:37:40;;;;;;;0.50;0.50;;;5.40;99.90;;;;;;5134973;28;20486;-80
2022/01/23 07:40:06;;;;;;;1.30;1.10;;;5.70;99.90;;;;;;5134454;28;20049;-77
2022/01/23 07:42:32;;;;;;;0.50;0.50;;;5.40;99.90;;;;;;5134592;28;20103;-79
2022/01/23 07:44:58;;;;;;;0.50;0.50;;;5.40;99.90;;;;;;5134612;28;20102;-78
2022/01/23 07:47:23;;;;;;;0.60;0.60;;;5.40;99.90;;;;;;5134627;28;20390;-80
2022/01/23 07:49:50;;;;;;;0.60;0.60;;;5.10;99.90;;;;;;5134991;27;20047;-77
2022/01/23 07:52:16;;;;;;;0.60;0.60;;;5.40;99.90;;;;;;5134596;28;20104;-78
2022/01/23 07:54:43;;;;;;;0.50;0.50;;;5.40;99.90;;;;;;5134188;28;20047;-77
2022/01/23 07:57:08;;;;;;;0.60;0.60;;;5.40;99.90;;;;;;5116658;28;20054;-76
2022/01/23 07:59:34;;;;;;;0.50;0.50;;;5.50;99.90;;;;;;5116360;28;20039;-78
2022/01/23 08:02:00;;;;;;;0.60;0.60;;;5.40;99.90;;;;;;5135205;28;20066;-79
2022/01/23 08:04:26;;;;;;;0.50;0.50;;;5.40;99.90;;;;;;5116124;28;20410;-78
2022/01/23 08:07:07;;;;;;;0.60;0.60;;;5.50;99.90;;;;;;5134414;28;20045;-80
2022/01/23 08:09:33;;;;;;;0.50;0.50;;;5.50;99.90;;;;;;5134805;28;20089;-79
2022/01/23 08:11:59;;;;;;;0.60;0.60;;;5.50;99.90;;;;;;5116467;28;20471;-79
2022/01/23 08:14:25;;;;;;;0.95;0.95;;;5.80;99.90;;;;;;5134530;28;20126;-78
2022/01/23 08:16:50;;;;;;;0.50;0.50;;;5.50;99.90;;;;;;5134853;27;20096;-78
2022/01/23 08:19:16;;;;;;;0.50;0.50;;;5.50;99.90;;;;;;5120482;27;20046;-80
2022/01/23 08:21:42;;;;;;;0.52;0.52;;;5.60;99.90;;;;;;5138575;27;20537;-78
2022/01/23 08:24:07;;;;;;;0.50;0.50;;;5.60;99.90;;;;;;5138104;27;20047;-79
2022/01/23 08:26:33;;;;;;;0.60;0.60;;;5.60;99.90;;;;;;5138127;27;20039;-78
2022/01/23 08:29:00;;;;;;;0.60;0.60;;;5.60;99.90;;;;;;5120063;27;20146;-77
2022/01/23 08:31:26;;;;;;;0.60;0.60;;;5.70;99.90;;;;;;5138560;27;20047;-79
2022/01/23 08:33:53;;;;;;;0.60;0.60;;;5.70;99.90;;;;;;5138092;27;20487;-77
2022/01/23 08:36:19;;;;;;;0.50;0.50;;;5.70;99.90;;;;;;5138055;27;20426;-76
2022/01/23 08:38:45;;;;;;;0.50;0.50;;;5.70;99.90;;;;;;5102845;27;20099;-78
2022/01/23 08:43:39;;;;;;;0.50;0.50;;;5.80;99.90;;;;;;5119492;27;20054;-78
2022/01/23 08:46:05;;;;;;;0.50;0.50;;;5.80;99.90;;;;;;5137862;27;20039;-78
2022/01/23 08:48:31;;;;;;;1.60;1.50;;;5.90;99.90;;;;;;5119368;27;20178;-78
2022/01/23 08:50:57;;;;;;;0.80;0.80;;;5.90;99.90;;;;;;5137648;27;20085;-77
2022/01/23 08:53:24;;;;;;;0.60;0.60;;;5.90;99.90;;;;;;5137683;27;20451;-76
2022/01/23 08:55:49;;;;;;;0.50;0.50;;;5.90;99.90;;;;;;5136254;27;20072;-77
2022/01/23 08:58:16;;;;;;;0.50;0.50;;;6.00;99.90;;;;;;5118625;27;20047;-76
2022/01/23 09:00:42;;;;;;;0.60;0.60;;;6.00;99.90;;;;;;5118531;27;20502;-77
2022/01/23 09:03:08;;;;;;;0.50;0.50;;;6.00;99.90;;;;;;5119188;27;20053;-75
2022/01/23 09:05:34;;;;;;;0.57;0.57;;;6.10;99.90;;;;;;5118628;27;20131;-76
2022/01/23 09:07:59;;;;;;;0.60;0.60;;;6.10;99.90;;;;;;5118626;27;20050;-75
2022/01/23 09:10:27;;;;;;;0.50;0.50;;;6.10;99.90;;;;;;5136980;27;20039;-75
2022/01/23 09:15:38;;;;;;;0.50;0.50;;;6.10;99.90;;;;;;5118268;27;20479;-77
2022/01/23 09:18:07;;;;;;;0.70;0.70;;;6.20;99.90;;;;;;5118755;27;20050;-78
2022/01/23 09:20:33;;;;;;;0.50;0.50;;;6.20;99.90;;;;;;5118389;27;20424;-78
2022/01/23 09:22:58;;;;;;;0.60;0.60;;;6.20;99.90;;;;;;5118698;27;20475;-76
2022/01/23 09:25:24;;;;;;;0.95;0.95;;;6.20;99.90;;;;;;5100930;27;20133;-77
2022/01/23 09:27:50;;;;;;;0.63;0.63;;;6.20;99.90;;;;;;5118487;27;20103;-77
2022/01/23 09:30:19;;;;;;;0.50;0.50;;;6.30;99.90;;;;;;5117405;27;20046;-78
2022/01/23 09:32:47;;;;;;;0.93;0.82;;;6.30;99.90;;;;;;5118350;27;20479;-78
2022/01/23 09:35:14;;;;;;;0.60;0.60;;;6.40;99.90;;;;;;5118021;27;20406;-79
2022/01/23 09:37:40;;;;;;;0.95;0.95;;;6.40;99.90;;;;;;5117971;27;20440;-78
2022/01/23 09:40:07;;;;;;;0.50;0.50;;;6.40;99.90;;;;;;5117866;27;20053;-79
2022/01/23 09:42:40;;;;;;;0.50;0.50;;;6.50;99.90;;;;;;5118114;27;20043;-77
2022/01/23 09:45:09;;;;;;;0.50;0.50;;;6.50;99.90;;;;;;5117977;27;20457;-76
2022/01/23 09:47:37;;;;;;;0.50;0.50;;;6.60;99.90;;;;;;5118238;27;20050;-76
2022/01/23 09:50:04;;;;;;;0.50;0.50;;;6.60;99.90;;;;;;5117683;27;20047;-77
2022/01/23 09:52:33;;;;;;;0.50;0.50;;;6.60;99.90;;;;;;5117609;27;20050;-77
2022/01/23 09:55:06;;;;;;;0.50;0.50;;;6.70;99.90;;;;;;5100626;27;20424;-76
2022/01/23 09:57:33;;;;;;;0.50;0.50;;;6.60;99.90;;;;;;5117991;27;20398;-75
2022/01/23 09:59:59;;;;;;;0.50;0.50;;;6.70;99.90;;;;;;5117474;27;20486;-76
2022/01/23 10:02:25;;;;;;;0.50;0.50;;;6.70;99.90;;;;;;5117956;27;20050;-78
2022/01/23 10:04:52;;;;;;;0.80;0.80;;;6.80;99.90;;;;;;5117973;27;20031;-78
2022/01/23 10:07:18;;;;;;;0.50;0.50;;;6.80;99.90;;;;;;5135665;27;20039;-79
2022/01/23 10:09:46;;;;;;;1.08;1.05;;;6.80;99.90;;;;;;5136073;27;20035;-81
2022/01/23 10:12:12;;;;;;;0.65;0.65;;;6.80;99.90;;;;;;5117902;27;20054;-78
2022/01/23 10:14:38;;;;;;;0.50;0.50;;;6.80;99.90;;;;;;5135912;27;20044;-78
2022/01/23 10:17:06;;;;;;;0.50;0.50;;;6.80;99.90;;;;;;5135958;27;20039;-84
2022/01/23 10:19:35;;;;;;;0.50;0.50;;;6.90;99.90;;;;;;5135719;27;20493;-78
2022/01/23 10:22:03;;;;;;;0.50;0.50;;;6.70;99.90;;;;;;5117572;27;20122;-76
2022/01/23 10:24:29;;;;;;;0.50;0.50;;;6.90;99.90;;;;;;5135651;27;20051;-78
2022/01/23 10:27:08;;;;;;;0.52;0.52;;;6.90;99.90;;;;;;5135659;27;20043;-79
2022/01/23 10:29:37;;;;;;;0.85;0.80;;;7.00;99.90;;;;;;5117084;27;20078;-78
2022/01/23 10:32:21;;;;;;;1.10;1.05;;;7.00;99.90;;;;;;5135293;27;20046;-77
2022/01/23 10:34:57;;;;;;;0.73;0.73;;;7.10;99.90;;;;;;5135887;27;20058;-78
2022/01/23 10:37:27;;;;;;;2.93;1.90;;;7.10;99.90;;;;;;5135612;27;20372;-79
2022/01/23 10:39:53;;;;;;;0.50;0.50;;;7.10;99.90;;;;;;5135120;27;20493;-78
2022/01/23 10:48:01;;;;;;;0.50;0.50;;;7.30;99.90;;;;;;5135687;27;20130;-77
2022/01/23 10:50:28;;;;;;;0.47;0.47;;;7.30;99.90;;;;;;5135439;27;20038;-78
2022/01/23 10:52:59;;;;;;;0.50;0.50;;;7.30;99.90;;;;;;5135487;27;20047;-78
2022/01/23 10:55:28;;;;;;;0.40;0.40;;;7.40;99.90;;;;;;5135244;27;20050;-78
2022/01/23 10:57:58;;;;;;;0.50;0.50;;;7.40;99.90;;;;;;5135574;27;20047;-78
2022/01/23 11:00:37;;;;;;;0.60;0.60;;;7.30;99.90;;;;;;5135060;27;20050;-78
2022/01/23 11:03:21;;;;;;;0.50;0.50;;;7.40;99.90;;;;;;5135481;27;20062;-78
2022/01/23 11:05:48;;;;;;;0.50;0.50;;;7.40;99.90;;;;;;5134976;27;20054;-78
2022/01/23 11:08:21;;;;;;;1.05;1.05;;;7.40;99.90;;;;;;5117083;27;20051;-78
2022/01/23 11:10:59;;;;;;;0.80;0.80;;;7.50;99.90;;;;;;5135136;27;20043;-79
2022/01/23 11:19:27;;;;;;;0.57;0.57;;;7.50;99.90;;;;;;5135108;27;20047;-79
2022/01/23 11:21:53;;;;;;;0.50;0.50;;;7.50;99.90;;;;;;5135371;27;20043;-77
2022/01/23 11:24:20;;;;;;;0.65;0.65;;;7.50;99.90;;;;;;5135040;28;20054;-78
2022/01/23 11:26:46;;;;;;;0.50;0.50;;;7.60;99.90;;;;;;5134696;28;20051;-77
2022/01/23 11:29:15;;;;;;;0.50;0.50;;;7.60;99.90;;;;;;5134921;28;20076;-78
2022/01/23 11:31:43;;;;;;;0.50;0.50;;;7.60;99.90;;;;;;5135021;28;20054;-78
2022/01/23 11:34:11;;;;;;;0.50;0.50;;;7.60;99.90;;;;;;5134974;28;20043;-79
2022/01/23 11:36:37;;;;;;;0.50;0.50;;;7.60;99.90;;;;;;5134966;28;20094;-78
2022/01/23 11:39:21;;;;;;;0.50;0.50;;;7.60;99.90;;;;;;5134717;28;20050;-78
2022/01/23 11:50:37;;;;;;;0.50;0.50;;;7.50;99.90;;;;;;5134306;27;20051;-78
2022/01/23 11:56:28;;;;;;;0.50;0.50;;;7.50;99.90;;;;;;5138853;27;20054;-78
2022/01/23 11:59:19;;;;;;;0.60;0.60;;;7.50;99.90;;;;;;5138778;27;20051;-78
2022/01/23 12:02:09;;;;;;;0.70;0.70;;;7.50;99.90;;;;;;5120664;27;20044;-78
2022/01/23 12:04:35;;;;;;;0.50;0.50;;;7.50;99.90;;;;;;5138989;27;20043;-78
2022/01/23 12:07:12;;;;;;;0.50;0.50;;;7.50;99.90;;;;;;5138580;27;20108;-79
2022/01/23 12:09:41;;;;;;;0.50;0.50;;;7.50;99.90;;;;;;5138199;27;20510;-78
2022/01/23 12:17:12;;;;;;;0.50;0.50;;;7.40;99.90;;;;;;5138534;27;20050;-79
2022/01/23 12:19:56;;;;;;;0.50;0.50;;;7.40;99.90;;;;;;5138669;27;20035;-78
2022/01/23 12:22:34;;;;;;;0.50;0.50;;;7.40;99.90;;;;;;5138291;27;20047;-78
2022/01/23 12:25:25;;;;;;;0.47;0.47;;;7.40;99.90;;;;;;5137997;27;20091;-76
2022/01/23 12:28:12;;;;;;;0.50;0.50;;;7.30;99.90;;;;;;5137457;27;20130;-79
2022/01/23 12:30:40;;;;;;;0.40;0.40;;;7.30;99.90;;;;;;5102850;27;20088;-77
2022/01/23 12:33:11;;;;;;;0.40;0.40;;;7.30;99.90;;;;;;5137816;27;20050;-79
2022/01/23 12:35:39;;;;;;;0.50;0.50;;;7.30;99.90;;;;;;5138028;27;20414;-75
2022/01/23 12:38:06;;;;;;;0.50;0.50;;;7.30;99.90;;;;;;5138000;27;20047;-78
2022/01/23 12:40:51;;;;;;;0.50;0.50;;;7.30;99.90;;;;;;5138653;27;20043;-78
2022/01/23 12:43:24;;;;;;;0.50;0.50;;;7.30;99.90;;;;;;5138832;27;20047;-79
2022/01/23 12:46:00;;;;;;;0.50;0.50;;;7.30;99.90;;;;;;5137664;27;20039;-76
2022/01/23 12:48:26;;;;;;;0.50;0.50;;;7.20;99.90;;;;;;5118777;27;20543;-79
2022/01/23 12:51:12;;;;;;;0.50;0.50;;;7.20;99.90;;;;;;5138152;27;20047;-79
2022/01/23 12:53:45;;;;;;;0.73;0.70;;;7.20;99.90;;;;;;5137712;27;20047;-78
2022/01/23 12:56:14;;;;;;;0.50;0.50;;;7.20;99.90;;;;;;5119725;27;20452;-80
2022/01/23 12:58:41;;;;;;;0.50;0.50;;;7.20;99.90;;;;;;5102261;27;20467;-79
2022/01/23 13:01:16;;;;;;;0.50;0.50;;;7.20;99.90;;;;;;5119379;27;20039;-79
2022/01/23 13:03:53;;;;;;;0.50;0.50;;;7.10;99.90;;;;;;5118213;27;20047;-77
2022/01/23 13:06:33;;;;;;;0.50;0.50;;;7.10;99.90;;;;;;5137410;27;20046;-78
2022/01/23 13:18:12;;;;;;;0.50;0.50;;;7.10;99.90;;;;;;5137736;27;20521;-78
2022/01/23 13:32:09;;;;;;;0.50;0.50;;;7.10;99.90;;;;;;5137602;27;20051;-78
2022/01/23 13:34:36;;;;;;;0.50;0.50;;;7.10;99.90;;;;;;5137199;27;20394;-77
2022/01/23 13:37:08;;;;;;;0.50;0.50;;;7.00;99.90;;;;;;5136528;27;20122;-78
2022/01/23 13:39:40;;;;;;;0.50;0.50;;;7.10;99.90;;;;;;5136763;27;20432;-77
2022/01/23 13:42:28;;;;;;;0.50;0.50;;;7.00;99.90;;;;;;5137124;27;20414;-78
2022/01/23 13:48:07;;;;;;;0.50;0.50;;;7.00;99.90;;;;;;5120876;27;20047;-76
2022/01/23 13:51:17;;;;;;;0.50;0.50;;;7.00;99.90;;;;;;5118728;27;20047;-78
2022/01/23 13:54:02;;;;;;;0.50;0.50;;;7.00;99.90;;;;;;5136833;27;20479;-77
2022/01/23 13:59:43;;;;;;;0.50;0.50;;;6.90;99.90;;;;;;5136659;27;20051;-75
2022/01/23 14:02:16;;;;;;;0.50;0.50;;;6.90;99.90;;;;;;5136106;27;20043;-79
2022/01/23 14:04:46;;;;;;;0.50;0.50;;;6.90;99.90;;;;;;5118113;27;20469;-79
2022/01/23 14:07:15;;;;;;;0.50;0.50;;;6.80;99.90;;;;;;5136378;27;20035;-78
2022/01/23 14:09:43;;;;;;;0.90;0.70;;;6.80;99.90;;;;;;5136429;27;20043;-78
2022/01/23 14:12:14;;;;;;;0.50;0.50;;;6.80;99.90;;;;;;5136518;27;20031;-78
2022/01/23 14:14:56;;;;;;;0.50;0.50;;;6.80;99.90;;;;;;5135694;27;20463;-76
2022/01/23 14:17:24;;;;;;;0.60;0.60;;;6.80;99.90;;;;;;5135971;27;20043;-77
2022/01/23 14:20:08;;;;;;;0.50;0.50;;;6.80;99.90;;;;;;5134939;27;20444;-77
2022/01/23 14:22:38;;;;;;;0.50;0.50;;;6.80;99.90;;;;;;5135533;27;20039;-77
2022/01/23 14:25:20;;;;;;;0.85;0.85;;;6.80;99.90;;;;;;5135670;27;20462;-76
2022/01/23 14:28:04;;;;;;;0.50;0.50;;;6.70;99.90;;;;;;5135633;27;20042;-76
2022/01/23 14:30:30;;;;;;;0.70;0.70;;;6.60;99.90;;;;;;5135659;27;20043;-76
2022/01/23 14:33:05;;;;;;;0.50;0.50;;;6.60;99.90;;;;;;5135969;27;20058;-77
2022/01/23 14:35:32;;;;;;;0.50;0.50;;;6.60;99.90;;;;;;5136096;27;20047;-77
2022/01/23 14:38:18;;;;;;;0.50;0.50;;;6.60;99.90;;;;;;5117370;27;20421;-76
2022/01/23 14:41:03;;;;;;;0.50;0.50;;;6.60;99.90;;;;;;5135485;27;20113;-77
2022/01/23 14:43:36;;;;;;;0.50;0.50;;;6.70;99.90;;;;;;5117215;27;20043;-77
2022/01/23 14:46:04;;;;;;;0.50;0.50;;;6.70;99.90;;;;;;5135276;27;20475;-77
2022/01/23 14:48:33;;;;;;;0.50;0.50;;;6.70;99.90;;;;;;5135615;27;20134;-77
2022/01/23 14:51:02;;;;;;;0.50;0.50;;;6.70;99.90;;;;;;5135160;27;20066;-76
2022/01/23 14:53:29;;;;;;;0.50;0.50;;;6.70;99.90;;;;;;5134984;27;20043;-77
2022/01/23 14:55:57;;;;;;;0.70;0.70;;;6.70;99.90;;;;;;5135238;27;20054;-76
2022/01/23 14:58:24;;;;;;;0.50;0.50;;;6.70;99.90;;;;;;5135030;27;20078;-77
2022/01/23 15:00:53;;;;;;;0.50;0.50;;;6.70;99.90;;;;;;5134959;27;20035;-76
2022/01/23 15:03:20;;;;;;;0.50;0.50;;;6.70;99.90;;;;;;5134990;27;20039;-76
2022/01/23 15:05:46;;;;;;;;;;;6.70;99.90;;;;;;5135338;27;20039;-76
2022/01/23 15:08:13;;;;;;;0.50;0.50;;;6.70;99.90;;;;;;5134927;27;19964;-76
2022/01/23 15:10:42;;;;;;;0.50;0.50;;;6.70;99.90;;;;;;5134874;27;20047;-76
2022/01/23 15:13:09;;;;;;;0.50;0.50;;;6.70;99.90;;;;;;5134879;27;20083;-77
2022/01/23 15:15:35;;;;;;;0.50;0.50;;;6.70;99.90;;;;;;5134674;27;20498;-77
2022/01/23 15:18:01;;;;;;;0.45;0.45;;;6.60;99.90;;;;;;5134777;27;20086;-76
2022/01/23 15:20:27;;;;;;;0.50;0.50;;;6.60;99.90;;;;;;5134800;27;20083;-77
2022/01/23 15:22:53;;;;;;;0.50;0.50;;;6.60;99.90;;;;;;5134745;27;20078;-77
2022/01/23 15:25:19;;;;;;;0.50;0.50;;;6.60;99.90;;;;;;5134716;27;20517;-77
2022/01/23 15:27:46;;;;;;;0.50;0.50;;;6.60;99.90;;;;;;5134443;27;20115;-76
2022/01/23 15:30:16;;;;;;;0.50;0.50;;;6.60;99.90;;;;;;5134664;28;20069;-76
2022/01/23 15:32:43;;;;;;;0.50;0.50;;;6.60;99.90;;;;;;5134656;28;20566;-77
2022/01/23 15:35:09;;;;;;;0.50;0.50;;;6.60;99.90;;;;;;5099898;28;20051;-76
2022/01/23 15:37:34;;;;;;;0.50;0.50;;;6.60;99.90;;;;;;5134148;28;20385;-79
2022/01/23 15:40:00;;;;;;;0.50;0.50;;;6.60;99.90;;;;;;5134366;28;20039;-78
2022/01/23 15:42:26;;;;;;;0.50;0.50;;;6.50;99.90;;;;;;5134825;28;20509;-79
2022/01/23 15:44:52;;;;;;;0.50;0.50;;;6.50;99.90;;;;;;5116044;28;20081;-79
2022/01/23 15:47:17;;;;;;;0.60;0.60;;;6.50;99.90;;;;;;5134519;28;20043;-79
2022/01/23 15:49:43;;;;;;;0.50;0.50;;;6.50;99.90;;;;;;5099099;28;20427;-79
2022/01/23 15:52:10;;;;;;;0.50;0.50;;;6.50;99.90;;;;;;5134444;28;20046;-79
2022/01/23 15:54:35;;;;;;;0.50;0.50;;;6.50;99.90;;;;;;5117298;28;20039;-78
2022/01/23 15:57:02;;;;;;;0.82;0.82;;;6.50;99.90;;;;;;5116567;28;20485;-78
2022/01/23 15:59:27;;;;;;;1.13;1.08;;;6.50;99.90;;;;;;5134672;28;20044;-79
2022/01/23 16:01:53;;;;;;;0.50;0.50;;;6.50;99.90;;;;;;5116595;28;20171;-79
2022/01/23 16:04:21;;;;;;;0.50;0.50;;;6.50;99.90;;;;;;5116325;28;20039;-79
2022/01/23 16:06:47;;;;;;;0.50;0.50;;;6.50;99.90;;;;;;5133974;28;20491;-78
2022/01/23 16:09:14;;;;;;;0.50;0.50;;;6.40;99.90;;;;;;5134275;28;20049;-77
2022/01/23 16:11:41;;;;;;;0.50;0.50;;;6.40;99.90;;;;;;5134226;28;20130;-77
2022/01/23 16:14:07;;;;;;;;;;;6.40;99.90;;;;;;5134679;28;20043;-79
2022/01/23 16:16:33;;;;;;;0.50;0.50;;;6.50;99.90;;;;;;5134041;28;19919;-77
2022/01/23 16:18:59;;;;;;;0.50;0.50;;;6.30;99.90;;;;;;5116053;28;20096;-77
2022/01/23 16:21:26;;;;;;;0.50;0.50;;;6.40;99.90;;;;;;5133762;28;20578;-77
2022/01/23 16:23:51;;;;;;;0.50;0.50;;;6.40;99.90;;;;;;5134129;28;20058;-78
2022/01/23 16:26:18;;;;;;;0.50;0.50;;;6.30;99.90;;;;;;5134111;28;20043;-77
2022/01/23 16:28:44;;;;;;;0.73;0.73;;;6.30;99.90;;;;;;5134166;28;20415;-78
2022/01/23 16:31:11;;;;;;;0.50;0.50;;;6.30;99.90;;;;;;5115751;28;20039;-77
2022/01/23 16:33:38;;;;;;;0.50;0.50;;;6.30;99.90;;;;;;5123217;28;20043;-77